Time;durP1;ratioP1;P1;durP2;ratioP2;P2;SDS_P1;SDS_P2;PMS_P1;PMS_P2;Temp;Humidity;BMP_temperature;BMP_pressure;BME280_temperature;BME280_humidity;BME280_pressure;Samples;Min_cycle;Max_cycle;Signal;HPM_P1;HPM_P2
2021/08/06 00:01:41;;;;;;;2.75;0.90;;;;;;;;;;5056367;28;20039;-86
2021/08/06 00:04:07;;;;;;;2.85;1.15;;;;;;;;;;5057316;28;20116;-85
2021/08/06 00:06:33;;;;;;;3.42;0.90;;;;;;;;;;5056148;28;20068;-86
2021/08/06 00:08:59;;;;;;;1.23;1.05;;;;;;;;;;5057413;28;20026;-85
2021/08/06 00:11:27;;;;;;;1.33;1.17;;;;;;;;;;5057132;28;20032;-86
2021/08/06 00:13:53;;;;;;;3.65;1.73;;;;;;;;;;5056292;28;20029;-86
2021/08/06 00:16:19;;;;;;;4.85;1.05;;;;;;;;;;5056254;28;20037;-85
2021/08/06 00:18:45;;;;;;;1.75;1.23;;;;;;;;;;5057198;28;20036;-87
2021/08/06 00:21:11;;;;;;;2.50;1.30;;;;;;;;;;5057369;28;20057;-87
2021/08/06 00:23:37;;;;;;;4.97;2.33;;;;;;;;;;5056501;28;20029;-87
2021/08/06 00:26:04;;;;;;;2.17;1.60;;;;;;;;;;5056474;28;20029;-87
2021/08/06 00:28:30;;;;;;;5.57;1.52;;;;;;;;;;5056091;28;20032;-85
2021/08/06 00:30:56;;;;;;;5.15;2.40;;;;;;;;;;5060454;28;20404;-85
2021/08/06 00:33:22;;;;;;;3.17;1.67;;;;;;;;;;5060670;28;20342;-85
2021/08/06 00:35:48;;;;;;;3.85;1.38;;;;;;;;;;5060627;28;20025;-85
2021/08/06 00:38:14;;;;;;;4.35;1.27;;;;;;;;;;5060764;28;20029;-85
2021/08/06 00:40:40;;;;;;;2.15;1.20;;;;;;;;;;5060137;28;20021;-85
2021/08/06 00:43:06;;;;;;;5.95;1.63;;;;;;;;;;5060104;28;20076;-85
2021/08/06 00:45:32;;;;;;;3.92;1.13;;;;;;;;;;5060965;28;20131;-85
2021/08/06 00:47:58;;;;;;;2.83;1.20;;;;;;;;;;5060545;28;20045;-85
2021/08/06 00:50:24;;;;;;;3.90;1.55;;;;;;;;;;5060534;28;20114;-85
2021/08/06 00:52:51;;;;;;;4.70;1.38;;;;;;;;;;5060267;28;20025;-85
2021/08/06 00:55:17;;;;;;;3.92;1.42;;;;;;;;;;5060792;28;20400;-85
2021/08/06 00:57:43;;;;;;;1.58;1.10;;;;;;;;;;5059826;28;20398;-86
2021/08/06 01:00:09;;;;;;;2.25;1.45;;;;;;;;;;5060451;28;20033;-85
2021/08/06 01:02:44;;;;;;;2.33;1.40;;;;;;;;;;5059487;28;20033;-85
2021/08/06 01:05:22;;;;;;;2.22;1.13;;;;;;;;;;5059472;28;20048;-85
2021/08/06 01:07:51;;;;;;;2.17;1.20;;;;;;;;;;5060235;28;20391;-85
2021/08/06 01:10:18;;;;;;;3.17;1.38;;;;;;;;;;5060248;28;20116;-85
2021/08/06 01:12:47;;;;;;;3.38;0.98;;;;;;;;;;5060444;28;20040;-85
2021/08/06 01:15:13;;;;;;;3.00;1.50;;;;;;;;;;5059548;28;20021;-85
2021/08/06 01:17:42;;;;;;;2.15;1.08;;;;;;;;;;5060432;28;20075;-85
2021/08/06 01:20:16;;;;;;;2.05;1.20;;;;;;;;;;5060010;28;20056;-85
2021/08/06 01:22:57;;;;;;;1.70;1.50;;;;;;;;;;5059167;28;20052;-85
2021/08/06 01:25:39;;;;;;;2.40;1.30;;;;;;;;;;5058946;28;20025;-84
2021/08/06 01:28:05;;;;;;;1.40;1.25;;;;;;;;;;5059745;28;20120;-84
2021/08/06 01:30:31;;;;;;;2.00;1.25;;;;;;;;;;5059749;28;20096;-85
2021/08/06 01:32:58;;;;;;;3.80;1.67;;;;;;;;;;5059932;28;20025;-84
2021/08/06 01:35:24;;;;;;;3.33;1.05;;;;;;;;;;5058760;28;20323;-84
2021/08/06 01:37:50;;;;;;;2.90;1.25;;;;;;;;;;5059709;28;20399;-84
2021/08/06 01:40:16;;;;;;;0.93;0.88;;;;;;;;;;5059703;28;20382;-83
2021/08/06 01:42:42;;;;;;;1.60;1.00;;;;;;;;;;5059691;28;20020;-84
2021/08/06 01:45:11;;;;;;;5.15;1.20;;;;;;;;;;5059486;28;20108;-84
2021/08/06 01:47:41;;;;;;;2.85;1.30;;;;;;;;;;5058342;28;20045;-85
2021/08/06 01:50:08;;;;;;;1.58;1.13;;;;;;;;;;5058663;28;20025;-85
2021/08/06 01:52:47;;;;;;;2.13;1.30;;;;;;;;;;5059469;28;20028;-85
2021/08/06 01:55:14;;;;;;;1.88;1.33;;;;;;;;;;5059553;28;20025;-85
2021/08/06 01:57:40;;;;;;;1.98;1.27;;;;;;;;;;5059226;28;20024;-85
2021/08/06 02:00:07;;;;;;;1.20;1.10;;;;;;;;;;5059535;28;20048;-84
2021/08/06 02:02:35;;;;;;;1.45;1.30;;;;;;;;;;5059225;28;20032;-85
2021/08/06 02:05:01;;;;;;;3.60;1.40;;;;;;;;;;5058342;28;20021;-85
2021/08/06 02:07:27;;;;;;;1.20;1.10;;;;;;;;;;5058213;28;20021;-84
2021/08/06 02:09:55;;;;;;;2.13;1.35;;;;;;;;;;5059206;28;20464;-85
2021/08/06 02:12:21;;;;;;;1.25;1.10;;;;;;;;;;5059122;28;20024;-85
2021/08/06 02:14:48;;;;;;;1.65;1.15;;;;;;;;;;5057988;28;20029;-85
2021/08/06 02:17:15;;;;;;;1.77;1.20;;;;;;;;;;5058337;28;20032;-85
2021/08/06 02:19:42;;;;;;;2.00;1.23;;;;;;;;;;5059250;28;20032;-85
2021/08/06 02:22:09;;;;;;;2.20;1.33;;;;;;;;;;5059107;28;20037;-85
2021/08/06 02:24:36;;;;;;;2.85;1.42;;;;;;;;;;5058785;28;20403;-83
2021/08/06 02:27:02;;;;;;;2.88;1.30;;;;;;;;;;5058503;28;20039;-83
2021/08/06 02:29:30;;;;;;;2.58;1.50;;;;;;;;;;5058677;28;20032;-83
2021/08/06 02:31:59;;;;;;;2.47;1.48;;;;;;;;;;5058792;28;20054;-84
2021/08/06 02:34:26;;;;;;;4.07;1.25;;;;;;;;;;5058941;28;20024;-85
2021/08/06 02:36:52;;;;;;;1.40;1.25;;;;;;;;;;5058733;28;20039;-85
2021/08/06 02:39:24;;;;;;;3.53;1.30;;;;;;;;;;5057806;28;20025;-85
2021/08/06 02:41:51;;;;;;;2.17;1.13;;;;;;;;;;5058463;28;20029;-84
2021/08/06 02:44:17;;;;;;;1.90;1.25;;;;;;;;;;5058371;28;20032;-85
2021/08/06 02:46:44;;;;;;;1.83;1.30;;;;;;;;;;5057133;28;20404;-85
2021/08/06 02:49:10;;;;;;;4.00;1.45;;;;;;;;;;5058633;28;20051;-84
2021/08/06 02:51:36;;;;;;;3.78;1.50;;;;;;;;;;5057641;28;20025;-85
2021/08/06 02:54:03;;;;;;;3.20;1.45;;;;;;;;;;5058098;28;20025;-85
2021/08/06 02:56:29;;;;;;;2.15;1.40;;;;;;;;;;5057449;28;20021;-85
2021/08/06 02:58:55;;;;;;;3.13;1.50;;;;;;;;;;5058395;28;20025;-85
2021/08/06 03:01:21;;;;;;;3.38;1.52;;;;;;;;;;5057309;28;20082;-86
2021/08/06 03:03:47;;;;;;;2.67;1.40;;;;;;;;;;5058329;28;20093;-86
2021/08/06 03:06:13;;;;;;;1.95;1.40;;;;;;;;;;5058129;28;20066;-86
2021/08/06 03:08:39;;;;;;;4.15;1.35;;;;;;;;;;5057951;28;20429;-86
2021/08/06 03:11:05;;;;;;;2.08;1.60;;;;;;;;;;5057168;28;20032;-85
2021/08/06 03:13:31;;;;;;;5.30;1.55;;;;;;;;;;5057944;28;20017;-85
2021/08/06 03:15:57;;;;;;;1.52;1.30;;;;;;;;;;5057970;28;20020;-85
2021/08/06 03:18:23;;;;;;;2.17;1.30;;;;;;;;;;5056934;28;20032;-85
2021/08/06 03:20:50;;;;;;;2.45;1.30;;;;;;;;;;5056812;28;20039;-85
2021/08/06 03:23:16;;;;;;;1.20;1.10;;;;;;;;;;5057923;28;20035;-86
2021/08/06 03:25:42;;;;;;;2.20;1.30;;;;;;;;;;5056821;28;20036;-85
2021/08/06 03:28:08;;;;;;;1.75;1.08;;;;;;;;;;5056717;28;20037;-85
2021/08/06 03:30:34;;;;;;;3.83;1.38;;;;;;;;;;5057970;28;20067;-84
2021/08/06 03:33:00;;;;;;;2.17;1.25;;;;;;;;;;5057801;28;20032;-84
2021/08/06 03:35:26;;;;;;;2.83;1.52;;;;;;;;;;5057549;28;20021;-84
2021/08/06 03:37:52;;;;;;;3.33;1.30;;;;;;;;;;5057668;28;20029;-87
2021/08/06 03:40:18;;;;;;;2.10;1.00;;;;;;;;;;5057664;28;20021;-86
2021/08/06 03:42:44;;;;;;;3.55;1.10;;;;;;;;;;5057566;28;20055;-86
2021/08/06 03:45:11;;;;;;;3.58;1.80;;;;;;;;;;5057819;28;20056;-86
2021/08/06 03:47:37;;;;;;;5.00;1.10;;;;;;;;;;5057214;28;20048;-84
2021/08/06 03:50:04;;;;;;;5.35;1.17;;;;;;;;;;5057521;28;20423;-85
2021/08/06 03:52:31;;;;;;;3.03;1.17;;;;;;;;;;5057471;28;20021;-85
2021/08/06 03:54:57;;;;;;;1.55;1.00;;;;;;;;;;5056402;28;20028;-87
2021/08/06 03:57:23;;;;;;;2.20;1.08;;;;;;;;;;5057322;28;20094;-84
2021/08/06 03:59:49;;;;;;;2.03;1.17;;;;;;;;;;5056355;28;20025;-85
2021/08/06 04:02:15;;;;;;;1.10;0.82;;;;;;;;;;5056387;28;20034;-85
2021/08/06 04:04:42;;;;;;;3.08;1.00;;;;;;;;;;5059614;28;20063;-88
2021/08/06 04:07:08;;;;;;;1.65;1.10;;;;;;;;;;5061402;28;20032;-85
2021/08/06 04:09:34;;;;;;;1.85;1.00;;;;;;;;;;5060405;28;20025;-85
2021/08/06 04:12:00;;;;;;;1.67;1.05;;;;;;;;;;5061170;28;20355;-84
2021/08/06 04:14:26;;;;;;;1.63;1.00;;;;;;;;;;5061202;28;20391;-84
2021/08/06 04:16:52;;;;;;;2.67;1.10;;;;;;;;;;5061373;28;20035;-84
2021/08/06 04:19:18;;;;;;;5.00;1.20;;;;;;;;;;5061375;28;20025;-83
2021/08/06 04:21:44;;;;;;;2.75;1.00;;;;;;;;;;5061339;28;20021;-84
2021/08/06 04:24:10;;;;;;;2.40;0.93;;;;;;;;;;5060154;28;20521;-84
2021/08/06 04:26:36;;;;;;;6.45;1.40;;;;;;;;;;5061112;28;20048;-84
2021/08/06 04:29:03;;;;;;;5.55;1.10;;;;;;;;;;5060897;28;20032;-85
2021/08/06 04:31:29;;;;;;;3.55;1.00;;;;;;;;;;5061017;28;20052;-84
2021/08/06 04:33:55;;;;;;;2.10;1.00;;;;;;;;;;5060047;28;20428;-84
2021/08/06 04:36:21;;;;;;;2.63;1.00;;;;;;;;;;5061061;28;20044;-85
2021/08/06 04:38:47;;;;;;;3.30;1.23;;;;;;;;;;5061049;28;20028;-85
2021/08/06 04:41:13;;;;;;;1.10;1.00;;;;;;;;;;5060908;28;20033;-84
2021/08/06 04:43:39;;;;;;;3.05;1.08;;;;;;;;;;5060708;28;20414;-86
2021/08/06 04:46:05;;;;;;;3.90;1.38;;;;;;;;;;5060395;28;20029;-86
2021/08/06 04:48:31;;;;;;;4.78;1.45;;;;;;;;;;5061066;28;20041;-87
2021/08/06 04:50:57;;;;;;;9.45;3.38;;;;;;;;;;5060812;28;20025;-87
2021/08/06 04:53:23;;;;;;;1.27;1.17;;;;;;;;;;5060805;28;20021;-87
2021/08/06 04:55:49;;;;;;;6.05;1.83;;;;;;;;;;5059944;28;20319;-86
2021/08/06 04:58:15;;;;;;;2.13;1.05;;;;;;;;;;5060424;28;20069;-85
2021/08/06 05:00:42;;;;;;;3.45;1.35;;;;;;;;;;5060544;28;20045;-87
2021/08/06 05:03:08;;;;;;;2.33;1.23;;;;;;;;;;5060689;28;20037;-86
2021/08/06 05:05:34;;;;;;;3.00;2.10;;;;;;;;;;5060421;28;20021;-85
2021/08/06 05:08:00;;;;;;;6.95;2.42;;;;;;;;;;5060186;28;20029;-85
2021/08/06 05:10:26;;;;;;;3.40;1.27;;;;;;;;;;5060456;28;20017;-85
2021/08/06 05:12:53;;;;;;;1.65;1.00;;;;;;;;;;5059523;28;20112;-85
2021/08/06 05:15:19;;;;;;;5.85;3.05;;;;;;;;;;5058597;28;20021;-86
2021/08/06 05:17:45;;;;;;;3.08;1.52;;;;;;;;;;5059338;28;20029;-85
2021/08/06 05:20:11;;;;;;;1.17;1.00;;;;;;;;;;5058886;28;20048;-84
2021/08/06 05:22:37;;;;;;;2.63;1.90;;;;;;;;;;5058670;28;20308;-85
2021/08/06 05:25:04;;;;;;;3.03;2.55;;;;;;;;;;5059027;28;20319;-85
2021/08/06 05:27:30;;;;;;;5.88;2.50;;;;;;;;;;5058863;28;20419;-85
2021/08/06 05:29:56;;;;;;;5.63;2.05;;;;;;;;;;5060127;28;20033;-85
2021/08/06 05:32:23;;;;;;;7.20;2.95;;;;;;;;;;5058951;28;20021;-83
2021/08/06 05:34:50;;;;;;;2.58;1.20;;;;;;;;;;5058851;28;20017;-84
2021/08/06 05:37:19;;;;;;;4.28;2.05;;;;;;;;;;5059754;28;20036;-85
2021/08/06 05:39:45;;;;;;;5.25;1.27;;;;;;;;;;5059567;28;20060;-85
2021/08/06 05:42:11;;;;;;;3.10;1.70;;;;;;;;;;5058851;28;20025;-85
2021/08/06 05:44:37;;;;;;;1.83;1.63;;;;;;;;;;5058643;28;20029;-85
2021/08/06 05:47:03;;;;;;;3.47;2.15;;;;;;;;;;5059293;28;20346;-85
2021/08/06 05:49:29;;;;;;;12.73;6.25;;;;;;;;;;5059353;28;20391;-85
2021/08/06 05:51:55;;;;;;;9.70;3.05;;;;;;;;;;5059658;28;20040;-85
2021/08/06 05:54:21;;;;;;;2.40;2.00;;;;;;;;;;5059487;28;20112;-86
2021/08/06 05:56:47;;;;;;;7.30;3.50;;;;;;;;;;5058560;28;20021;-85
2021/08/06 05:59:13;;;;;;;2.47;1.98;;;;;;;;;;5057994;28;20100;-92
2021/08/06 06:01:39;;;;;;;5.65;2.85;;;;;;;;;;5059838;28;20070;-91
2021/08/06 06:04:05;;;;;;;4.07;2.28;;;;;;;;;;5058604;28;20021;-91
2021/08/06 06:06:33;;;;;;;7.82;3.13;;;;;;;;;;5059386;28;20323;-91
2021/08/06 06:08:59;;;;;;;7.60;3.72;;;;;;;;;;5059200;28;20025;-92
2021/08/06 06:11:26;;;;;;;4.47;2.40;;;;;;;;;;5059239;28;20096;-91
2021/08/06 06:13:52;;;;;;;4.20;2.83;;;;;;;;;;5059153;28;20025;-90
2021/08/06 06:16:18;;;;;;;14.93;11.35;;;;;;;;;;5058100;28;20037;-92
2021/08/06 06:18:44;;;;;;;46.42;35.15;;;;;;;;;;5059052;28;20028;-90
2021/08/06 06:21:10;;;;;;;21.33;13.40;;;;;;;;;;5059139;28;20395;-90
2021/08/06 06:42:56;;;;;;;4.40;2.00;;;;;;;;;;5095220;27;20362;-92
2021/08/06 06:45:23;;;;;;;6.10;1.80;;;;;;;;;;5094914;28;20024;-94
2021/08/06 06:47:50;;;;;;;8.50;2.08;;;;;;;;;;5094038;28;20028;-92
2021/08/06 06:50:18;;;;;;;5.13;3.45;;;;;;;;;;5095040;28;20062;-93
2021/08/06 06:52:44;;;;;;;4.75;2.30;;;;;;;;;;5093968;28;20111;-93
2021/08/06 06:55:11;;;;;;;2.58;1.90;;;;;;;;;;5093905;28;20016;-93
2021/08/06 06:57:44;;;;;;;6.63;3.28;;;;;;;;;;5093905;28;20055;-92
2021/08/06 07:00:11;;;;;;;4.57;3.33;;;;;;;;;;5093844;28;20077;-91
2021/08/06 07:05:41;;;;;;;7.72;3.50;;;;;;;;;;5094867;28;20027;-92
2021/08/06 07:08:07;;;;;;;2.58;1.80;;;;;;;;;;5094636;28;20020;-92
2021/08/06 07:10:33;;;;;;;2.25;1.98;;;;;;;;;;5093389;28;20040;-92
2021/08/06 07:12:59;;;;;;;3.65;1.55;;;;;;;;;;5094800;28;20314;-93
2021/08/06 07:15:25;;;;;;;2.72;2.10;;;;;;;;;;5094628;28;20352;-90
2021/08/06 07:20:55;;;;;;;1.85;1.60;;;;;;;;;;5094581;28;20096;-93
2021/08/06 07:23:21;;;;;;;2.28;1.48;;;;;;;;;;5094741;28;20017;-91
2021/08/06 07:25:47;;;;;;;4.68;2.80;;;;;;;;;;5094560;28;20017;-92
2021/08/06 07:28:13;;;;;;;3.03;1.95;;;;;;;;;;5093276;28;20020;-92
2021/08/06 07:30:39;;;;;;;3.92;1.73;;;;;;;;;;5093096;28;20497;-92
2021/08/06 07:36:09;;;;;;;3.65;1.42;;;;;;;;;;5094367;28;20432;-92
2021/08/06 07:38:35;;;;;;;4.30;1.75;;;;;;;;;;5094434;28;20025;-93
2021/08/06 07:41:01;;;;;;;2.28;1.50;;;;;;;;;;5094054;28;20047;-92
2021/08/06 07:43:27;;;;;;;3.28;2.10;;;;;;;;;;5082438;28;20024;-91
2021/08/06 07:45:53;;;;;;;5.82;2.38;;;;;;;;;;5080736;28;20048;-90
2021/08/06 07:48:19;;;;;;;11.57;5.82;;;;;;;;;;5080194;28;20056;-91
2021/08/06 07:50:45;;;;;;;2.03;1.80;;;;;;;;;;5079388;28;20333;-91
2021/08/06 07:53:11;;;;;;;4.13;3.17;;;;;;;;;;5079330;28;20029;-92
2021/08/06 07:55:37;;;;;;;2.45;1.73;;;;;;;;;;5079298;28;20395;-91
2021/08/06 07:58:04;;;;;;;2.45;1.30;;;;;;;;;;5080639;28;20032;-91
2021/08/06 08:00:30;;;;;;;3.40;1.13;;;;;;;;;;5080077;28;20036;-92
2021/08/06 08:03:14;;;;;;;3.90;1.17;;;;;;;;;;5079123;28;20028;-91
2021/08/06 08:05:40;;;;;;;4.65;1.50;;;;;;;;;;5080081;28;20134;-91
2021/08/06 08:08:07;;;;;;;1.50;1.10;;;;;;;;;;5080315;28;20047;-90
2021/08/06 08:10:33;;;;;;;7.57;4.68;;;;;;;;;;5079116;28;20044;-91
2021/08/06 08:25:54;;;;;;;5.68;3.15;;;;;;;;;;5095785;27;20362;-92
2021/08/06 08:28:24;;;;;;;2.45;1.33;;;;;;;;;;5094947;28;20033;-91
2021/08/06 08:36:58;;;;;;;4.88;2.00;;;;;;;;;;5095052;28;20321;-93
2021/08/06 08:39:24;;;;;;;1.40;1.30;;;;;;;;;;5095092;28;20039;-92
2021/08/06 08:41:50;;;;;;;7.28;3.72;;;;;;;;;;5095078;28;20043;-92
2021/08/06 08:44:16;;;;;;;5.50;3.30;;;;;;;;;;5093692;28;20029;-93
2021/08/06 08:46:43;;;;;;;63.78;54.40;;;;;;;;;;5093762;28;20414;-91
2021/08/06 08:49:10;;;;;;;7.07;5.00;;;;;;;;;;5093805;28;20025;-91
2021/08/06 08:51:37;;;;;;;1.95;1.67;;;;;;;;;;5093807;28;20035;-91
2021/08/06 08:54:05;;;;;;;3.63;2.05;;;;;;;;;;5094177;28;20081;-92
2021/08/06 08:56:31;;;;;;;6.05;2.70;;;;;;;;;;5093650;28;20115;-90
2021/08/06 09:02:00;;;;;;;6.47;2.33;;;;;;;;;;5094481;28;20105;-90
2021/08/06 09:04:28;;;;;;;8.05;5.13;;;;;;;;;;5093246;28;20024;-92
2021/08/06 09:06:55;;;;;;;10.80;4.88;;;;;;;;;;5093657;28;20035;-91
2021/08/06 09:09:23;;;;;;;8.80;5.20;;;;;;;;;;5093514;28;20157;-92
2021/08/06 09:11:50;;;;;;;6.43;3.10;;;;;;;;;;5093414;28;20020;-91
2021/08/06 09:23:36;;;;;;;3.17;2.20;;;;;;;;;;5093871;28;20032;-91
2021/08/06 09:26:02;;;;;;;9.43;4.35;;;;;;;;;;5085153;28;20066;-91
2021/08/06 09:28:28;;;;;;;3.55;2.05;;;;;;;;;;5080602;28;20025;-91
2021/08/06 09:31:13;;;;;;;10.00;4.05;;;;;;;;;;5080493;28;20344;-90
2021/08/06 09:33:39;;;;;;;3.53;2.60;;;;;;;;;;5079324;28;20028;-91
2021/08/06 09:36:18;;;;;;;3.45;2.00;;;;;;;;;;5080247;28;20402;-91
2021/08/06 09:38:44;;;;;;;2.70;2.00;;;;;;;;;;5080019;28;20048;-91
2021/08/06 09:41:30;;;;;;;6.47;2.47;;;;;;;;;;5080209;28;20032;-91
2021/08/06 09:50:06;;;;;;;2.20;1.73;;;;;;;;;;5080160;28;20143;-92
2021/08/06 09:52:36;;;;;;;4.85;2.10;;;;;;;;;;5079820;28;20112;-92
2021/08/06 09:55:04;;;;;;;9.57;4.85;;;;;;;;;;5079043;28;20040;-92
2021/08/06 09:57:30;;;;;;;5.53;2.80;;;;;;;;;;5079953;28;20039;-91
2021/08/06 09:59:57;;;;;;;4.65;2.92;;;;;;;;;;5078856;28;20410;-92
2021/08/06 10:02:28;;;;;;;5.65;2.88;;;;;;;;;;5079712;28;20432;-91
2021/08/06 10:05:00;;;;;;;5.75;3.33;;;;;;;;;;5079577;28;20029;-92
2021/08/06 10:07:27;;;;;;;2.42;1.70;;;;;;;;;;5078919;28;20036;-92
2021/08/06 10:09:53;;;;;;;4.88;1.67;;;;;;;;;;5079883;28;20409;-91
2021/08/06 10:12:19;;;;;;;6.93;2.80;;;;;;;;;;5078846;28;20032;-91
2021/08/06 10:15:04;;;;;;;8.75;3.63;;;;;;;;;;5079890;28;20044;-91
2021/08/06 10:17:30;;;;;;;4.90;2.35;;;;;;;;;;5078542;28;20025;-92
2021/08/06 10:19:56;;;;;;;5.07;1.95;;;;;;;;;;5078534;28;20059;-91
2021/08/06 10:22:23;;;;;;;3.67;2.05;;;;;;;;;;5079848;28;20473;-91
2021/08/06 10:24:53;;;;;;;5.43;3.20;;;;;;;;;;5079454;28;20037;-91
2021/08/06 10:27:26;;;;;;;3.88;2.72;;;;;;;;;;5078909;28;20032;-91
2021/08/06 10:29:57;;;;;;;3.08;1.60;;;;;;;;;;5064456;28;20295;-91
2021/08/06 10:32:23;;;;;;;1.85;1.50;;;;;;;;;;5061537;28;20028;-91
2021/08/06 10:35:08;;;;;;;2.63;1.70;;;;;;;;;;5059295;28;20040;-91
2021/08/06 10:37:40;;;;;;;4.03;1.80;;;;;;;;;;5077964;28;20025;-91
2021/08/06 10:40:06;;;;;;;5.10;2.75;;;;;;;;;;5078572;28;20064;-91
2021/08/06 10:42:32;;;;;;;7.65;3.10;;;;;;;;;;5073972;28;20033;-90
2021/08/06 10:51:15;;;;;;;3.40;2.80;;;;;;;;;;5059137;28;20028;-92
2021/08/06 10:53:42;;;;;;;3.05;1.77;;;;;;;;;;5057937;28;20439;-93
2021/08/06 10:56:22;;;;;;;2.70;1.50;;;;;;;;;;5058213;28;20040;-91
2021/08/06 10:58:48;;;;;;;4.90;2.25;;;;;;;;;;5058145;28;20116;-93
2021/08/06 11:01:30;;;;;;;3.92;2.10;;;;;;;;;;5058843;28;20027;-92
2021/08/06 11:04:00;;;;;;;4.80;2.90;;;;;;;;;;5058540;28;20373;-93
2021/08/06 11:06:35;;;;;;;6.38;3.33;;;;;;;;;;5057730;28;20067;-93
2021/08/06 11:09:03;;;;;;;6.35;2.83;;;;;;;;;;5057652;28;20025;-93
2021/08/06 11:11:48;;;;;;;3.20;2.40;;;;;;;;;;5058502;28;20100;-93
2021/08/06 11:14:16;;;;;;;8.45;3.20;;;;;;;;;;5057500;28;20068;-92
2021/08/06 11:17:00;;;;;;;5.93;2.70;;;;;;;;;;5057669;28;20071;-93
2021/08/06 11:19:30;;;;;;;4.57;2.85;;;;;;;;;;5057488;28;20322;-92
2021/08/06 11:21:57;;;;;;;2.43;2.10;;;;;;;;;;5058059;28;20031;-93
2021/08/06 11:24:23;;;;;;;7.20;3.83;;;;;;;;;;5057898;28;20057;-94
2021/08/06 11:26:50;;;;;;;8.85;5.07;;;;;;;;;;5057294;28;20074;-92
2021/08/06 11:29:16;;;;;;;6.47;3.35;;;;;;;;;;5057243;28;20410;-92
2021/08/06 11:32:20;;;;;;;4.38;2.05;;;;;;;;;;5058175;28;20415;-93
2021/08/06 11:34:58;;;;;;;6.20;2.85;;;;;;;;;;5058001;28;20057;-92
2021/08/06 11:37:26;;;;;;;6.43;3.70;;;;;;;;;;5057052;28;20024;-93
2021/08/06 11:40:09;;;;;;;4.90;2.90;;;;;;;;;;5057841;28;20464;-93
2021/08/06 11:42:35;;;;;;;4.47;3.10;;;;;;;;;;5057949;28;20033;-92
2021/08/06 11:48:05;;;;;;;7.20;2.20;;;;;;;;;;5057943;28;20358;-92
2021/08/06 11:50:37;;;;;;;4.22;2.08;;;;;;;;;;5058069;28;20024;-92
2021/08/06 11:53:04;;;;;;;7.22;2.05;;;;;;;;;;5057545;28;20055;-93
2021/08/06 11:55:30;;;;;;;4.05;1.58;;;;;;;;;;5057798;28;20143;-91
2021/08/06 11:57:58;;;;;;;3.28;1.98;;;;;;;;;;5058038;28;20029;-92
2021/08/06 12:03:27;;;;;;;3.97;2.00;;;;;;;;;;5057668;28;20079;-94
2021/08/06 12:06:00;;;;;;;4.53;2.72;;;;;;;;;;5056710;28;20029;-92
2021/08/06 12:08:34;;;;;;;5.32;2.70;;;;;;;;;;5056618;28;20082;-92
2021/08/06 12:11:09;;;;;;;5.25;3.78;;;;;;;;;;5057500;28;20033;-92
2021/08/06 12:13:48;;;;;;;2.63;2.20;;;;;;;;;;5057576;28;20442;-92
2021/08/06 12:16:34;;;;;;;2.78;1.42;;;;;;;;;;5057532;28;20037;-93
2021/08/06 12:19:01;;;;;;;3.92;1.90;;;;;;;;;;5057398;28;20017;-91
2021/08/06 12:21:31;;;;;;;4.20;1.90;;;;;;;;;;5057394;28;20473;-93
2021/08/06 12:23:59;;;;;;;5.13;2.67;;;;;;;;;;5057319;28;20053;-92
2021/08/06 12:26:31;;;;;;;3.05;2.05;;;;;;;;;;5057323;28;20402;-92
2021/08/06 12:29:11;;;;;;;4.13;2.65;;;;;;;;;;5057824;28;20032;-92
2021/08/06 12:31:49;;;;;;;5.38;2.67;;;;;;;;;;5057816;28;20027;-91
2021/08/06 12:34:18;;;;;;;5.40;2.67;;;;;;;;;;5056531;28;20048;-92
2021/08/06 12:36:54;;;;;;;2.25;1.50;;;;;;;;;;5057686;28;20079;-91
2021/08/06 12:39:20;;;;;;;3.08;1.40;;;;;;;;;;5057911;28;20045;-92
2021/08/06 12:41:47;;;;;;;1.80;1.50;;;;;;;;;;5056842;28;20043;-91
2021/08/06 12:44:16;;;;;;;3.40;1.90;;;;;;;;;;5057061;28;20284;-87
2021/08/06 12:46:43;;;;;;;2.15;1.50;;;;;;;;;;5056932;28;20036;-92
2021/08/06 12:49:10;;;;;;;6.07;2.70;;;;;;;;;;5056549;28;20033;-92
2021/08/06 12:51:38;;;;;;;3.15;2.22;;;;;;;;;;5056617;28;20094;-92
2021/08/06 12:54:04;;;;;;;3.30;2.13;;;;;;;;;;5057166;28;20051;-91
2021/08/06 12:56:50;;;;;;;4.45;1.23;;;;;;;;;;5057154;28;20029;-91
2021/08/06 12:59:20;;;;;;;1.85;1.23;;;;;;;;;;5056220;28;20033;-92
2021/08/06 13:01:47;;;;;;;2.70;1.48;;;;;;;;;;5059253;28;20440;-91
2021/08/06 13:04:13;;;;;;;2.20;1.20;;;;;;;;;;5059860;28;20043;-92
2021/08/06 13:06:49;;;;;;;2.58;1.90;;;;;;;;;;5061063;28;20021;-92
2021/08/06 13:09:34;;;;;;;2.58;1.10;;;;;;;;;;5061063;28;20029;-91
2021/08/06 13:12:07;;;;;;;6.75;2.90;;;;;;;;;;5059947;28;20037;-91
2021/08/06 13:14:33;;;;;;;2.88;1.90;;;;;;;;;;5074639;28;20029;-91
2021/08/06 13:20:03;;;;;;;2.78;1.40;;;;;;;;;;5069425;28;20373;-90
2021/08/06 13:22:29;;;;;;;3.28;1.73;;;;;;;;;;5059536;28;20040;-92
2021/08/06 13:24:55;;;;;;;3.13;1.80;;;;;;;;;;5060015;28;20128;-92
2021/08/06 13:27:21;;;;;;;2.15;1.42;;;;;;;;;;5060078;28;20025;-92
2021/08/06 13:30:00;;;;;;;3.38;2.90;;;;;;;;;;5061564;28;20029;-92
2021/08/06 13:32:26;;;;;;;5.43;3.05;;;;;;;;;;5060665;28;20027;-91
2021/08/06 13:34:52;;;;;;;2.92;2.45;;;;;;;;;;5060478;28;20021;-89
2021/08/06 13:37:18;;;;;;;8.10;6.68;;;;;;;;;;5060255;28;20029;-93
2021/08/06 13:39:44;;;;;;;2.63;2.20;;;;;;;;;;5060131;28;20031;-89
2021/08/06 13:42:11;;;;;;;3.53;2.70;;;;;;;;;;5060432;28;20020;-90
2021/08/06 13:44:37;;;;;;;5.22;3.33;;;;;;;;;;5060255;28;20296;-91
2021/08/06 13:47:05;;;;;;;4.07;2.10;;;;;;;;;;5060091;28;20021;-92
2021/08/06 13:49:32;;;;;;;3.45;1.30;;;;;;;;;;5059918;28;20036;-92
2021/08/06 13:51:58;;;;;;;2.65;1.40;;;;;;;;;;5059016;28;20315;-93
2021/08/06 13:54:25;;;;;;;2.47;1.02;;;;;;;;;;5059197;28;20048;-92
2021/08/06 13:56:52;;;;;;;1.67;1.58;;;;;;;;;;5059019;28;20116;-92
2021/08/06 13:59:19;;;;;;;1.92;1.40;;;;;;;;;;5059867;28;20332;-93
2021/08/06 14:01:46;;;;;;;4.18;1.73;;;;;;;;;;5059849;28;20017;-92
2021/08/06 14:04:12;;;;;;;3.50;3.05;;;;;;;;;;5059654;28;20411;-92
2021/08/06 14:06:38;;;;;;;3.25;1.23;;;;;;;;;;5058901;28;20116;-92
2021/08/06 14:09:05;;;;;;;4.28;2.17;;;;;;;;;;5058820;28;20029;-91
2021/08/06 14:11:31;;;;;;;2.00;1.75;;;;;;;;;;5058509;28;20031;-91
2021/08/06 14:13:58;;;;;;;3.67;2.05;;;;;;;;;;5059537;28;20025;-91
2021/08/06 14:16:24;;;;;;;4.82;2.10;;;;;;;;;;5058551;28;20087;-91
2021/08/06 14:18:50;;;;;;;3.65;2.58;;;;;;;;;;5058384;28;20069;-92
2021/08/06 14:21:18;;;;;;;3.78;2.63;;;;;;;;;;5059266;28;20039;-92
2021/08/06 14:23:44;;;;;;;4.70;1.60;;;;;;;;;;5058157;28;20040;-92
2021/08/06 14:26:12;;;;;;;3.00;1.95;;;;;;;;;;5059449;28;20025;-92
2021/08/06 14:28:38;;;;;;;2.60;1.58;;;;;;;;;;5058652;28;20021;-93
2021/08/06 14:31:08;;;;;;;3.17;1.80;;;;;;;;;;5058925;28;20338;-92
2021/08/06 14:33:35;;;;;;;2.40;1.60;;;;;;;;;;5059059;28;20040;-91
2021/08/06 14:36:02;;;;;;;4.05;2.20;;;;;;;;;;5059078;28;20457;-91
2021/08/06 14:38:28;;;;;;;1.48;1.08;;;;;;;;;;5058187;28;20033;-91
2021/08/06 14:40:54;;;;;;;2.92;1.40;;;;;;;;;;5059001;28;20045;-92
2021/08/06 14:43:20;;;;;;;3.97;1.23;;;;;;;;;;5058965;28;20049;-91
2021/08/06 14:45:46;;;;;;;2.55;1.80;;;;;;;;;;5058924;28;20407;-91
2021/08/06 14:48:12;;;;;;;2.20;1.50;;;;;;;;;;5058003;28;20083;-92
2021/08/06 14:50:38;;;;;;;2.28;1.60;;;;;;;;;;5058921;28;20296;-91
2021/08/06 14:53:04;;;;;;;4.30;2.08;;;;;;;;;;5058539;28;20428;-91
2021/08/06 14:55:30;;;;;;;5.88;1.67;;;;;;;;;;5057718;28;20029;-92
2021/08/06 14:57:56;;;;;;;2.92;2.35;;;;;;;;;;5058644;28;20024;-92
2021/08/06 15:00:22;;;;;;;2.75;1.90;;;;;;;;;;5058638;28;20438;-91
2021/08/06 15:02:49;;;;;;;1.52;1.10;;;;;;;;;;5057610;28;20032;-92
2021/08/06 15:05:15;;;;;;;3.20;2.13;;;;;;;;;;5057429;28;20065;-91
2021/08/06 15:07:41;;;;;;;2.50;1.98;;;;;;;;;;5058615;28;20100;-91
2021/08/06 15:10:07;;;;;;;2.55;2.00;;;;;;;;;;5058760;28;20067;-91
2021/08/06 15:12:34;;;;;;;2.22;1.40;;;;;;;;;;5058390;28;20096;-91
2021/08/06 15:15:00;;;;;;;5.03;3.13;;;;;;;;;;5057572;28;20323;-95
2021/08/06 15:17:26;;;;;;;20.75;13.55;;;;;;;;;;5059671;28;20028;-89
2021/08/06 15:19:52;;;;;;;1.40;1.23;;;;;;;;;;5063815;28;20422;-91
2021/08/06 15:22:18;;;;;;;6.32;2.08;;;;;;;;;;5077601;28;20033;-91
2021/08/06 15:24:46;;;;;;;5.10;2.22;;;;;;;;;;5076332;28;20132;-91
2021/08/06 15:27:18;;;;;;;3.63;2.13;;;;;;;;;;5062215;28;20347;-91
2021/08/06 15:29:44;;;;;;;5.13;2.05;;;;;;;;;;5077327;28;20485;-92
2021/08/06 15:32:11;;;;;;;3.40;2.22;;;;;;;;;;5077365;28;20090;-91
2021/08/06 15:34:37;;;;;;;4.78;2.60;;;;;;;;;;5077155;28;20028;-91
2021/08/06 15:37:04;;;;;;;3.00;1.73;;;;;;;;;;5071822;28;20037;-91
2021/08/06 15:39:30;;;;;;;3.88;2.35;;;;;;;;;;5060244;28;20021;-90
2021/08/06 15:41:56;;;;;;;3.17;1.90;;;;;;;;;;5071665;28;20036;-90
2021/08/06 15:44:22;;;;;;;5.63;4.22;;;;;;;;;;5077122;28;20242;-91
2021/08/06 15:46:48;;;;;;;4.10;2.85;;;;;;;;;;5077081;28;20039;-92
2021/08/06 15:49:15;;;;;;;2.00;1.35;;;;;;;;;;5077927;28;20024;-91
2021/08/06 15:51:41;;;;;;;4.30;1.90;;;;;;;;;;5077772;28;20056;-91
2021/08/06 15:54:07;;;;;;;1.85;1.38;;;;;;;;;;5076727;28;20055;-91
2021/08/06 15:56:33;;;;;;;4.93;1.17;;;;;;;;;;5076882;28;20032;-91
2021/08/06 15:58:59;;;;;;;2.65;1.95;;;;;;;;;;5062721;28;20078;-91
2021/08/06 16:01:25;;;;;;;2.67;1.70;;;;;;;;;;5056690;28;20460;-92
2021/08/06 16:03:51;;;;;;;4.03;2.60;;;;;;;;;;5056979;28;20338;-91
2021/08/06 16:06:17;;;;;;;8.93;2.42;;;;;;;;;;5056792;28;20036;-91
2021/08/06 16:08:44;;;;;;;9.32;5.07;;;;;;;;;;5062684;28;20048;-91